Time;durP1;ratioP1;P1;durP2;ratioP2;P2;SDS_P1;SDS_P2;PMS_P1;PMS_P2;Temp;Humidity;BMP_temperature;BMP_pressure;BME280_temperature;BME280_humidity;BME280_pressure;Samples;Min_cycle;Max_cycle;Signal;HPM_P1;HPM_P2
2023/02/06 00:00:27;;;;;;;10.20;9.07;;;4.70;99.90;;;;;;5041296;28;20247;-73
2023/02/06 00:03:12;;;;;;;10.82;8.98;;;4.60;99.90;;;;;;5044053;28;20584;-73
2023/02/06 00:06:00;;;;;;;11.90;9.20;;;4.60;99.90;;;;;;5044968;28;20777;-72
2023/02/06 00:08:46;;;;;;;10.30;9.20;;;4.50;99.90;;;;;;5045598;28;20232;-72
2023/02/06 00:11:31;;;;;;;11.10;9.48;;;4.40;99.90;;;;;;5039725;28;20291;-73
2023/02/06 00:14:17;;;;;;;11.40;8.57;;;4.30;99.90;;;;;;5042347;28;20209;-72
2023/02/06 00:17:04;;;;;;;10.60;8.65;;;4.20;99.90;;;;;;5043995;28;20207;-72
2023/02/06 00:19:49;;;;;;;11.15;8.38;;;4.10;99.90;;;;;;5044184;28;20687;-72
2023/02/06 00:22:36;;;;;;;9.65;8.57;;;4.00;99.90;;;;;;5045946;28;20508;-72
2023/02/06 00:25:21;;;;;;;11.82;9.30;;;3.80;99.90;;;;;;5035833;28;20277;-73
2023/02/06 00:28:07;;;;;;;9.73;8.73;;;3.70;99.90;;;;;;5040486;28;20688;-72
2023/02/06 00:30:53;;;;;;;12.32;9.20;;;3.60;99.90;;;;;;5044444;28;20586;-72
2023/02/06 00:33:40;;;;;;;10.57;8.45;;;3.60;99.90;;;;;;5043759;28;20571;-72
2023/02/06 00:36:26;;;;;;;10.45;8.75;;;3.60;99.90;;;;;;5046187;28;20205;-73
2023/02/06 00:39:11;;;;;;;11.07;8.38;;;3.60;99.90;;;;;;5041385;28;20202;-72
2023/02/06 00:41:57;;;;;;;11.73;9.13;;;3.70;99.90;;;;;;5045690;28;20201;-72
2023/02/06 00:44:43;;;;;;;11.43;8.68;;;3.70;99.90;;;;;;5041317;28;20279;-72
2023/02/06 00:47:28;;;;;;;11.65;8.77;;;3.70;99.90;;;;;;5045192;28;20228;-72
2023/02/06 00:50:16;;;;;;;10.93;8.38;;;3.60;99.90;;;;;;5042892;28;20573;-74
2023/02/06 00:53:02;;;;;;;9.15;7.97;;;3.60;99.90;;;;;;5048180;28;20295;-72
2023/02/06 00:55:48;;;;;;;10.00;7.90;;;3.60;99.90;;;;;;5041824;28;20431;-72
2023/02/06 00:58:34;;;;;;;12.93;9.68;;;3.70;99.90;;;;;;5046391;28;20642;-73
2023/02/06 01:01:19;;;;;;;12.30;9.07;;;3.70;99.90;;;;;;5045889;28;20271;-72
2023/02/06 01:04:05;;;;;;;12.80;9.00;;;3.80;99.90;;;;;;5042793;28;20291;-72
2023/02/06 01:06:52;;;;;;;12.23;8.85;;;3.90;99.90;;;;;;5037983;28;20197;-72
2023/02/06 01:09:38;;;;;;;9.85;8.85;;;3.90;99.90;;;;;;5047217;28;20589;-73
2023/02/06 01:12:24;;;;;;;9.63;7.78;;;4.00;99.90;;;;;;5041906;28;20572;-72
2023/02/06 01:15:12;;;;;;;12.32;9.10;;;4.00;99.90;;;;;;5041015;28;20200;-73
2023/02/06 01:17:58;;;;;;;24.70;14.45;;;3.90;99.90;;;;;;5038504;28;20232;-73
2023/02/06 01:20:44;;;;;;;26.60;15.35;;;3.90;99.90;;;;;;5047973;28;20251;-72
2023/02/06 01:23:31;;;;;;;14.77;11.75;;;3.90;99.90;;;;;;5042726;28;20262;-73
2023/02/06 01:26:19;;;;;;;12.10;9.23;;;3.80;99.90;;;;;;5041458;28;20205;-72
2023/02/06 01:29:04;;;;;;;12.07;9.60;;;3.70;99.90;;;;;;5042898;28;20412;-73
2023/02/06 01:31:50;;;;;;;12.43;9.40;;;3.70;99.90;;;;;;5040189;28;20217;-73
2023/02/06 01:34:36;;;;;;;10.52;8.45;;;3.60;99.90;;;;;;5038921;28;20213;-73
2023/02/06 01:37:22;;;;;;;12.23;8.30;;;3.60;99.90;;;;;;5048738;28;20244;-73
2023/02/06 01:40:13;;;;;;;10.27;8.60;;;3.40;99.90;;;;;;5049333;28;20287;-73
2023/02/06 01:43:00;;;;;;;11.27;8.05;;;3.50;99.90;;;;;;5044722;28;20210;-73
2023/02/06 01:45:47;;;;;;;9.27;7.65;;;3.40;99.90;;;;;;5050912;28;20259;-73
2023/02/06 01:48:36;;;;;;;9.30;8.30;;;3.40;99.90;;;;;;5043653;28;20228;-72
2023/02/06 01:51:27;;;;;;;13.18;7.82;;;3.30;99.90;;;;;;5050965;28;20326;-73
2023/02/06 01:54:15;;;;;;;8.20;7.18;;;3.10;99.90;;;;;;5045641;28;20324;-73
2023/02/06 01:57:06;;;;;;;11.93;7.10;;;2.90;99.90;;;;;;5049884;28;20204;-73
2023/02/06 01:59:57;;;;;;;9.52;7.60;;;2.80;99.90;;;;;;5046482;28;20205;-73
2023/02/06 02:02:47;;;;;;;9.60;8.30;;;2.80;99.90;;;;;;5048789;28;20228;-73
2023/02/06 02:05:34;;;;;;;8.65;7.32;;;3.00;99.90;;;;;;5048768;28;20251;-73
2023/02/06 02:08:25;;;;;;;11.32;8.57;;;3.10;99.90;;;;;;5046970;28;20248;-72
2023/02/06 02:11:14;;;;;;;10.75;8.38;;;2.90;99.90;;;;;;5044978;28;20729;-73
2023/02/06 02:14:03;;;;;;;8.75;7.75;;;2.90;99.90;;;;;;5041728;28;20316;-73
2023/02/06 02:17:01;;;;;;;13.25;7.80;;;3.00;99.90;;;;;;5050148;28;20209;-73
2023/02/06 02:20:46;;;;;;;9.68;7.93;;;3.10;99.90;;;;;;5049676;28;20878;-73
2023/02/06 02:23:39;;;;;;;10.10;8.70;;;3.00;99.90;;;;;;4968115;28;20338;-73
2023/02/06 02:26:51;;;;;;;11.18;8.10;;;2.80;99.90;;;;;;5049082;28;20639;-73
2023/02/06 02:30:36;;;;;;;9.77;7.97;;;2.70;99.90;;;;;;5046595;28;20328;-73
2023/02/06 02:33:52;;;;;;;10.77;8.15;;;2.80;99.90;;;;;;4987497;28;20219;-73
2023/02/06 02:36:45;;;;;;;9.30;8.23;;;2.80;99.90;;;;;;5050456;28;20248;-73
2023/02/06 02:39:43;;;;;;;11.35;9.13;;;2.70;99.90;;;;;;5040419;28;20205;-73
2023/02/06 02:42:39;;;;;;;9.65;8.50;;;2.70;99.90;;;;;;5040723;28;20729;-73
2023/02/06 02:45:31;;;;;;;10.25;7.68;;;2.70;99.90;;;;;;5047236;28;20233;-73
2023/02/06 02:48:23;;;;;;;12.88;8.80;;;2.60;99.90;;;;;;5045100;28;20275;-73
2023/02/06 02:51:09;;;;;;;10.55;8.20;;;2.60;99.90;;;;;;5045474;28;20204;-73
2023/02/06 02:53:57;;;;;;;10.88;9.10;;;2.40;99.90;;;;;;5042459;28;20202;-73
2023/02/06 02:56:43;;;;;;;14.30;9.50;;;2.30;99.90;;;;;;5049445;28;20291;-73
2023/02/06 02:59:34;;;;;;;11.05;8.60;;;2.30;99.90;;;;;;5047929;28;20711;-73
2023/02/06 03:02:24;;;;;;;12.23;8.93;;;2.30;99.90;;;;;;5040792;28;20732;-73
2023/02/06 03:05:13;;;;;;;11.32;9.18;;;2.10;99.90;;;;;;5043957;28;20201;-73
2023/02/06 03:08:09;;;;;;;11.50;8.88;;;2.20;99.90;;;;;;5050735;28;20339;-73
2023/02/06 03:11:03;;;;;;;13.18;9.27;;;2.30;99.90;;;;;;5047289;28;20201;-73
2023/02/06 03:13:54;;;;;;;12.52;9.15;;;2.50;99.90;;;;;;5044097;28;20201;-73
2023/02/06 03:16:42;;;;;;;13.65;9.07;;;2.70;99.90;;;;;;5045629;28;20218;-73
2023/02/06 03:19:32;;;;;;;9.27;7.72;;;2.80;99.90;;;;;;5050182;28;20209;-73
2023/02/06 03:22:19;;;;;;;10.60;7.63;;;2.90;99.90;;;;;;5044382;28;20218;-73
2023/02/06 03:25:10;;;;;;;9.45;7.88;;;2.70;99.90;;;;;;5046781;28;20205;-73
2023/02/06 03:27:58;;;;;;;9.23;7.43;;;2.60;99.90;;;;;;5045794;28;20304;-73
2023/02/06 03:30:47;;;;;;;14.82;8.60;;;2.70;99.90;;;;;;5044971;28;20666;-73
2023/02/06 03:33:37;;;;;;;11.40;9.55;;;2.70;99.90;;;;;;5040910;28;20233;-73
2023/02/06 03:36:23;;;;;;;10.68;8.57;;;2.50;99.90;;;;;;5044015;28;20208;-73
2023/02/06 03:39:09;;;;;;;10.02;7.50;;;2.60;99.90;;;;;;5045162;28;20220;-73
2023/02/06 03:41:56;;;;;;;10.32;8.38;;;2.50;99.90;;;;;;5038442;28;20205;-73
2023/02/06 03:44:48;;;;;;;10.23;7.45;;;2.50;99.90;;;;;;5045467;28;20204;-73
2023/02/06 03:47:37;;;;;;;8.57;7.50;;;2.60;99.90;;;;;;5046719;28;20228;-73
2023/02/06 03:50:25;;;;;;;9.30;7.80;;;2.60;99.90;;;;;;5043764;28;20213;-73
2023/02/06 03:53:13;;;;;;;8.85;7.80;;;2.60;99.90;;;;;;5038659;28;20225;-73
2023/02/06 03:56:02;;;;;;;10.88;7.20;;;2.80;99.90;;;;;;5045838;28;20421;-73
2023/02/06 03:58:48;;;;;;;9.80;8.07;;;2.80;99.90;;;;;;5047732;28;20236;-73
2023/02/06 04:01:40;;;;;;;8.75;7.07;;;2.80;99.90;;;;;;5041575;28;20209;-73
2023/02/06 04:04:29;;;;;;;8.98;7.57;;;2.80;99.90;;;;;;5043771;28;20209;-73
2023/02/06 04:07:19;;;;;;;9.25;6.75;;;2.90;99.90;;;;;;5048288;28;20224;-73
2023/02/06 04:10:05;;;;;;;10.82;7.13;;;3.00;99.90;;;;;;5040483;28;20591;-73
2023/02/06 04:12:51;;;;;;;8.30;6.13;;;3.10;99.90;;;;;;5043106;28;20266;-73
2023/02/06 04:15:37;;;;;;;8.65;6.68;;;3.10;99.90;;;;;;5047404;28;20216;-73
2023/02/06 04:18:24;;;;;;;10.02;6.70;;;3.10;99.90;;;;;;5045504;28;20229;-73
2023/02/06 04:21:09;;;;;;;8.80;7.30;;;3.00;99.90;;;;;;5040100;28;20222;-73
2023/02/06 04:23:55;;;;;;;10.02;7.28;;;3.10;99.90;;;;;;5040745;28;20210;-73
2023/02/06 04:26:41;;;;;;;7.38;6.60;;;3.20;99.90;;;;;;5043886;28;20201;-73
2023/02/06 04:29:26;;;;;;;12.70;7.15;;;3.20;99.90;;;;;;5047670;28;20689;-73
2023/02/06 04:32:12;;;;;;;8.57;7.00;;;3.20;99.90;;;;;;5041605;28;20316;-73
2023/02/06 04:34:59;;;;;;;9.88;6.80;;;3.20;99.90;;;;;;5041337;28;20209;-73
2023/02/06 04:37:44;;;;;;;9.18;6.80;;;3.20;99.90;;;;;;5045297;28;20225;-73
2023/02/06 04:40:30;;;;;;;11.48;6.82;;;3.30;99.90;;;;;;5047717;28;20294;-73
2023/02/06 04:43:16;;;;;;;7.80;6.50;;;3.30;99.90;;;;;;5044892;28;20239;-73
2023/02/06 04:46:01;;;;;;;9.40;7.10;;;3.30;99.90;;;;;;5038018;28;20208;-73
2023/02/06 04:48:47;;;;;;;9.32;6.95;;;3.20;99.90;;;;;;5043823;28;20224;-73
2023/02/06 04:51:34;;;;;;;7.88;6.53;;;3.20;99.90;;;;;;5045723;28;20204;-73
2023/02/06 04:54:19;;;;;;;8.65;6.90;;;3.10;99.90;;;;;;5047337;28;20209;-73
2023/02/06 04:57:05;;;;;;;9.65;7.05;;;3.10;99.90;;;;;;5044315;28;20229;-73
2023/02/06 04:59:51;;;;;;;7.65;6.63;;;3.10;99.90;;;;;;5045893;28;20323;-73
2023/02/06 05:02:38;;;;;;;10.32;6.78;;;3.10;99.90;;;;;;5042966;28;20201;-73
2023/02/06 05:05:24;;;;;;;8.20;6.80;;;3.00;99.90;;;;;;5044121;28;20225;-73
2023/02/06 05:08:11;;;;;;;7.68;6.53;;;3.00;99.90;;;;;;5046425;28;20248;-73
2023/02/06 05:10:57;;;;;;;9.02;7.07;;;3.00;99.90;;;;;;5041531;28;20204;-73
2023/02/06 05:13:43;;;;;;;8.60;6.60;;;2.90;99.90;;;;;;5036111;28;20339;-73
2023/02/06 05:16:28;;;;;;;7.95;6.68;;;3.00;99.90;;;;;;5048275;28;20267;-73
2023/02/06 05:19:14;;;;;;;8.00;7.07;;;3.00;99.90;;;;;;5044604;28;20633;-73
2023/02/06 05:21:59;;;;;;;9.77;7.20;;;2.90;99.90;;;;;;5042451;28;20216;-73
2023/02/06 05:24:46;;;;;;;9.00;7.32;;;3.00;99.90;;;;;;5048905;28;20259;-73
2023/02/06 05:27:32;;;;;;;9.45;7.15;;;3.10;99.90;;;;;;5043958;28;20580;-73
2023/02/06 05:30:18;;;;;;;12.18;8.48;;;2.90;99.90;;;;;;5041639;28;20201;-73
2023/02/06 05:33:06;;;;;;;8.38;7.13;;;2.90;99.90;;;;;;5041747;28;20817;-73
2023/02/06 05:35:52;;;;;;;11.02;6.55;;;3.00;99.90;;;;;;5047355;28;20674;-73
2023/02/06 05:38:38;;;;;;;9.20;6.90;;;3.10;99.90;;;;;;5045517;28;20236;-73
2023/02/06 05:41:25;;;;;;;9.90;8.18;;;3.20;99.90;;;;;;5036116;28;20305;-73
2023/02/06 05:44:11;;;;;;;9.25;7.47;;;3.30;99.90;;;;;;5046952;28;20201;-73
2023/02/06 05:46:56;;;;;;;8.13;6.95;;;3.30;99.90;;;;;;5047241;28;20215;-73
2023/02/06 05:49:42;;;;;;;9.23;6.30;;;3.30;99.90;;;;;;5046287;28;20201;-73
2023/02/06 05:52:28;;;;;;;8.27;6.75;;;3.30;99.90;;;;;;5043638;28;20224;-73
2023/02/06 05:55:15;;;;;;;9.00;6.70;;;3.40;99.90;;;;;;5043089;28;20789;-73
2023/02/06 05:58:02;;;;;;;9.40;7.88;;;3.40;99.90;;;;;;5055693;22;20298;-73
2023/02/06 06:00:48;;;;;;;8.05;6.80;;;3.40;99.90;;;;;;5036762;28;20279;-73
2023/02/06 06:03:33;;;;;;;13.23;9.10;;;3.40;99.90;;;;;;5047057;28;20283;-73
2023/02/06 06:06:19;;;;;;;10.32;9.18;;;3.40;99.90;;;;;;5047695;28;20216;-73
2023/02/06 06:09:05;;;;;;;11.43;8.73;;;3.40;99.90;;;;;;5031659;28;20595;-73
2023/02/06 06:11:51;;;;;;;9.63;8.40;;;3.40;99.90;;;;;;5023008;28;20277;-73
2023/02/06 06:14:38;;;;;;;12.80;8.73;;;3.40;99.90;;;;;;5027686;28;20204;-73
2023/02/06 06:17:24;;;;;;;10.68;8.73;;;3.50;99.90;;;;;;5027772;28;20337;-73
2023/02/06 06:20:10;;;;;;;9.32;7.13;;;3.50;99.90;;;;;;5020302;28;20276;-73
2023/02/06 06:22:56;;;;;;;10.73;8.20;;;3.50;99.90;;;;;;5026204;28;20675;-73
2023/02/06 06:25:42;;;;;;;10.40;8.05;;;3.40;99.90;;;;;;5027755;28;20706;-73
2023/02/06 06:28:28;;;;;;;10.13;7.95;;;3.30;99.90;;;;;;5031824;28;20304;-73
2023/02/06 06:31:15;;;;;;;11.20;8.23;;;3.30;99.90;;;;;;5026968;28;20202;-73
2023/02/06 06:34:01;;;;;;;11.73;7.60;;;3.30;99.90;;;;;;5028003;28;20221;-72
2023/02/06 06:36:46;;;;;;;9.48;8.13;;;3.40;99.90;;;;;;5026490;28;20202;-73
2023/02/06 06:39:32;;;;;;;9.68;8.13;;;3.40;99.90;;;;;;5026621;28;20229;-73
2023/02/06 06:42:18;;;;;;;11.32;9.50;;;3.40;99.90;;;;;;5031726;28;20608;-73
2023/02/06 06:45:04;;;;;;;10.05;8.70;;;3.50;99.90;;;;;;5030037;28;20205;-73
2023/02/06 06:47:51;;;;;;;13.07;9.32;;;3.50;99.90;;;;;;5030133;28;20328;-73
2023/02/06 06:50:37;;;;;;;13.02;10.10;;;3.50;99.90;;;;;;5027443;28;20208;-73
2023/02/06 06:53:23;;;;;;;16.80;10.80;;;3.50;99.90;;;;;;5028687;28;20221;-73
2023/02/06 06:56:12;;;;;;;16.08;10.23;;;3.30;99.90;;;;;;5031145;28;20204;-73
2023/02/06 06:58:57;;;;;;;11.85;8.60;;;3.30;99.90;;;;;;5027189;28;20232;-73
2023/02/06 07:01:43;;;;;;;12.30;9.45;;;3.10;99.90;;;;;;5029442;28;20201;-73
2023/02/06 07:04:32;;;;;;;11.50;9.57;;;3.30;99.90;;;;;;5029568;28;20564;-73
2023/02/06 07:07:17;;;;;;;15.23;11.45;;;3.40;99.90;;;;;;5027075;28;20202;-73
2023/02/06 07:10:03;;;;;;;15.50;11.85;;;3.40;99.90;;;;;;5026199;28;20272;-74
2023/02/06 07:12:52;;;;;;;13.15;11.25;;;3.30;99.90;;;;;;5027542;28;20246;-73
2023/02/06 07:15:37;;;;;;;14.10;9.60;;;3.30;99.90;;;;;;5029175;28;20202;-73
2023/02/06 07:18:23;;;;;;;14.82;11.57;;;3.30;99.90;;;;;;5027302;28;20229;-73
2023/02/06 07:21:12;;;;;;;17.13;11.40;;;3.40;99.90;;;;;;5028667;28;20653;-73
2023/02/06 07:23:59;;;;;;;15.57;12.60;;;3.40;99.90;;;;;;5030064;28;20332;-73
2023/02/06 07:26:44;;;;;;;15.13;11.48;;;3.20;99.90;;;;;;5027841;28;20205;-73
2023/02/06 07:29:30;;;;;;;16.00;11.30;;;3.20;99.90;;;;;;5028036;28;20233;-72
2023/02/06 07:32:16;;;;;;;14.43;11.55;;;3.30;99.90;;;;;;5030355;28;20197;-72
2023/02/06 07:35:01;;;;;;;17.65;12.50;;;3.40;99.90;;;;;;5026984;28;20217;-73
2023/02/06 07:37:48;;;;;;;21.20;13.60;;;3.40;99.90;;;;;;5029680;28;20676;-73
2023/02/06 07:40:34;;;;;;;18.45;13.75;;;3.50;99.90;;;;;;5026736;28;20312;-73
2023/02/06 07:43:19;;;;;;;16.10;13.10;;;3.60;99.90;;;;;;5027772;28;20537;-73
2023/02/06 07:46:05;;;;;;;15.20;12.35;;;3.50;99.90;;;;;;5027024;28;20210;-74
2023/02/06 07:48:51;;;;;;;17.40;12.85;;;3.40;99.90;;;;;;5024994;28;20349;-73
2023/02/06 07:51:37;;;;;;;17.63;13.48;;;3.50;99.90;;;;;;5026839;28;20252;-73
2023/02/06 07:54:24;;;;;;;16.48;12.77;;;3.50;99.90;;;;;;5023022;28;20345;-73
2023/02/06 07:57:09;;;;;;;15.98;13.57;;;3.50;99.90;;;;;;5019860;28;20206;-73
2023/02/06 07:59:55;;;;;;;18.13;13.25;;;3.60;99.90;;;;;;5023674;28;20284;-73
2023/02/06 08:02:41;;;;;;;21.50;13.52;;;3.70;99.90;;;;;;5031814;28;20681;-73
2023/02/06 08:05:26;;;;;;;17.90;13.30;;;3.70;99.90;;;;;;5031436;28;20209;-73
2023/02/06 08:08:12;;;;;;;18.58;14.18;;;3.70;99.90;;;;;;5028773;28;20317;-73
2023/02/06 08:10:59;;;;;;;19.00;13.57;;;3.70;99.90;;;;;;5027692;28;20583;-74
2023/02/06 08:13:46;;;;;;;17.15;12.15;;;3.70;99.90;;;;;;5018377;28;20230;-73
2023/02/06 08:16:32;;;;;;;18.42;13.82;;;3.70;99.90;;;;;;5029177;28;20210;-73
2023/02/06 08:19:17;;;;;;;16.90;13.50;;;3.80;99.90;;;;;;5027201;28;20218;-73
2023/02/06 08:22:03;;;;;;;17.20;12.40;;;3.60;99.90;;;;;;5030844;28;20621;-73
2023/02/06 08:24:49;;;;;;;18.00;13.20;;;3.60;99.90;;;;;;5024123;28;20198;-73
2023/02/06 08:27:36;;;;;;;17.50;13.02;;;3.70;99.90;;;;;;5021752;28;20767;-73
2023/02/06 08:30:22;;;;;;;18.08;12.45;;;3.70;99.90;;;;;;5021816;28;20331;-73
2023/02/06 08:33:07;;;;;;;17.58;13.57;;;3.60;99.90;;;;;;5020636;28;20206;-73
2023/02/06 08:35:53;;;;;;;17.90;13.77;;;3.60;99.90;;;;;;5022426;28;20201;-73
2023/02/06 08:38:39;;;;;;;18.83;12.63;;;3.70;99.90;;;;;;5027620;28;20252;-72
2023/02/06 08:41:26;;;;;;;15.40;11.85;;;3.80;99.90;;;;;;5030656;28;20279;-73
2023/02/06 08:44:15;;;;;;;20.75;12.40;;;3.90;99.90;;;;;;5029597;28;20216;-72
2023/02/06 08:47:02;;;;;;;19.83;13.15;;;4.00;99.90;;;;;;5024073;28;20203;-73
2023/02/06 08:49:50;;;;;;;35.85;14.25;;;3.90;99.90;;;;;;5019346;28;20774;-73
2023/02/06 08:52:35;;;;;;;16.27;12.60;;;3.90;99.90;;;;;;5027880;28;20205;-74
2023/02/06 08:55:21;;;;;;;15.90;11.93;;;4.00;99.90;;;;;;5026609;28;20202;-73
2023/02/06 08:58:07;;;;;;;17.08;12.38;;;4.00;99.90;;;;;;5026807;28;20233;-74
2023/02/06 09:00:54;;;;;;;18.65;13.27;;;4.10;99.90;;;;;;5027590;28;20204;-74
2023/02/06 09:03:41;;;;;;;20.15;14.85;;;4.10;99.90;;;;;;5028130;28;20251;-72
2023/02/06 09:06:27;;;;;;;18.92;14.45;;;4.10;99.90;;;;;;5027112;28;20210;-72
2023/02/06 09:09:13;;;;;;;20.73;15.90;;;4.10;99.90;;;;;;5026919;28;20228;-73
2023/02/06 09:12:02;;;;;;;23.88;16.15;;;4.20;99.90;;;;;;5027981;28;20205;-74
2023/02/06 09:14:48;;;;;;;22.55;15.80;;;4.20;99.90;;;;;;5023060;28;20221;-72
2023/02/06 09:17:35;;;;;;;20.88;14.63;;;4.20;99.90;;;;;;5028914;28;20829;-73
2023/02/06 09:20:21;;;;;;;21.10;14.07;;;4.30;99.90;;;;;;5022954;28;20276;-73
2023/02/06 09:23:06;;;;;;;30.73;14.82;;;4.30;99.90;;;;;;5028526;28;20360;-73
2023/02/06 09:25:52;;;;;;;24.48;15.25;;;4.20;99.90;;;;;;5020776;28;20224;-73
2023/02/06 09:28:38;;;;;;;20.95;14.80;;;4.30;99.90;;;;;;5029669;28;20244;-73
2023/02/06 09:31:24;;;;;;;21.77;14.60;;;4.40;99.90;;;;;;5026810;28;20733;-73
2023/02/06 09:34:12;;;;;;;19.48;13.93;;;4.40;99.90;;;;;;5025723;28;20213;-73
2023/02/06 09:36:58;;;;;;;20.20;14.48;;;4.50;99.90;;;;;;5025074;28;20222;-73
2023/02/06 09:39:43;;;;;;;15.80;10.70;;;4.50;99.90;;;;;;5019503;28;20213;-72
2023/02/06 09:42:34;;;;;;;14.50;10.88;;;4.60;99.90;;;;;;5030475;28;20284;-73
2023/02/06 09:45:22;;;;;;;14.32;10.73;;;4.50;99.90;;;;;;5027078;28;20205;-73
2023/02/06 09:48:17;;;;;;;14.48;9.80;;;4.60;99.90;;;;;;5028258;28;20229;-73
2023/02/06 09:51:15;;;;;;;12.80;7.97;;;4.60;99.90;;;;;;5026145;28;20750;-74
2023/02/06 09:54:06;;;;;;;11.15;8.07;;;4.70;99.90;;;;;;5028978;28;20221;-73
2023/02/06 09:56:57;;;;;;;10.63;7.65;;;4.80;99.90;;;;;;5030211;28;20205;-73
2023/02/06 09:59:47;;;;;;;14.60;7.60;;;4.70;99.90;;;;;;5021771;28;20746;-73
2023/02/06 10:02:50;;;;;;;11.98;7.43;;;4.80;99.90;;;;;;5031680;28;20260;-73
2023/02/06 10:05:47;;;;;;;10.63;7.90;;;4.90;99.90;;;;;;5033474;28;20209;-73
2023/02/06 10:08:38;;;;;;;12.25;7.93;;;5.00;99.90;;;;;;5031329;28;20614;-72
2023/02/06 10:11:35;;;;;;;14.15;8.27;;;5.10;99.90;;;;;;5032950;28;20743;-73
2023/02/06 10:14:32;;;;;;;11.25;8.95;;;5.20;99.90;;;;;;5032719;28;20233;-73
2023/02/06 10:17:22;;;;;;;13.38;9.43;;;5.10;99.90;;;;;;5028935;28;20201;-71
2023/02/06 10:20:15;;;;;;;13.02;8.73;;;5.10;99.90;;;;;;5027819;28;20193;-73
2023/02/06 10:23:10;;;;;;;13.60;9.25;;;5.10;99.90;;;;;;5032929;28;20292;-73
2023/02/06 10:26:11;;;;;;;11.70;9.00;;;5.20;99.90;;;;;;5028881;28;20202;-73
2023/02/06 10:28:59;;;;;;;16.17;10.25;;;5.30;99.90;;;;;;5023261;28;20604;-73
2023/02/06 10:31:59;;;;;;;15.27;9.10;;;5.40;99.90;;;;;;5030914;28;20225;-73
2023/02/06 10:35:05;;;;;;;11.43;8.20;;;5.50;99.90;;;;;;5030772;28;20232;-73
2023/02/06 10:38:16;;;;;;;11.73;8.60;;;5.50;99.90;;;;;;5025299;28;20237;-73
2023/02/06 10:41:08;;;;;;;30.17;9.90;;;5.50;99.90;;;;;;5022193;28;20251;-73
2023/02/06 10:43:59;;;;;;;44.47;10.27;;;5.40;99.90;;;;;;5028964;28;20201;-72
2023/02/06 10:46:48;;;;;;;16.55;9.15;;;5.70;99.90;;;;;;5033424;28;20210;-72
2023/02/06 10:49:38;;;;;;;14.33;7.40;;;6.10;99.90;;;;;;5027102;28;20777;-72
2023/02/06 10:52:27;;;;;;;9.82;7.20;;;6.20;99.90;;;;;;5027070;28;20433;-72
2023/02/06 10:55:18;;;;;;;8.05;6.22;;;6.40;99.90;;;;;;5020731;28;20402;-72
2023/02/06 10:58:14;;;;;;;5.90;4.85;;;6.70;99.90;;;;;;5025045;28;20233;-72
2023/02/06 11:01:00;;;;;;;7.20;4.82;;;6.90;99.90;;;;;;5026889;28;20201;-73
2023/02/06 11:03:52;;;;;;;9.07;5.37;;;6.90;99.90;;;;;;5026794;28;20576;-73
2023/02/06 11:06:41;;;;;;;7.90;5.13;;;6.70;99.90;;;;;;5030594;28;20464;-72
2023/02/06 11:09:27;;;;;;;6.93;4.97;;;6.70;99.90;;;;;;5024693;28;20218;-73
2023/02/06 11:12:24;;;;;;;6.65;4.88;;;6.60;99.90;;;;;;5030951;28;20580;-72
2023/02/06 11:15:22;;;;;;;8.00;5.50;;;6.30;99.90;;;;;;5025606;28;20241;-72
2023/02/06 11:18:14;;;;;;;7.80;5.45;;;6.20;99.90;;;;;;5022608;28;20222;-74
2023/02/06 11:21:01;;;;;;;6.32;4.40;;;6.30;99.90;;;;;;5028741;28;20724;-73
2023/02/06 11:23:46;;;;;;;9.18;4.55;;;6.50;99.90;;;;;;5030248;28;20201;-69
2023/02/06 11:26:32;;;;;;;7.45;5.15;;;6.40;99.90;;;;;;5029525;28;20750;-70
2023/02/06 11:29:20;;;;;;;8.52;5.57;;;6.40;99.90;;;;;;5026003;28;20245;-70
2023/02/06 11:32:14;;;;;;;8.50;5.55;;;6.40;99.90;;;;;;5021984;28;20244;-70
2023/02/06 11:35:01;;;;;;;12.55;7.63;;;6.40;99.90;;;;;;5030755;28;20225;-73
2023/02/06 11:37:52;;;;;;;9.02;6.40;;;6.30;99.90;;;;;;5025797;28;20225;-71
2023/02/06 11:40:38;;;;;;;9.00;6.18;;;6.30;99.90;;;;;;5028947;28;20694;-70
2023/02/06 11:43:25;;;;;;;7.13;5.68;;;6.30;99.90;;;;;;5025682;28;20225;-70
2023/02/06 11:46:16;;;;;;;8.30;5.85;;;6.20;99.90;;;;;;5028846;28;20193;-69
2023/02/06 11:49:23;;;;;;;8.35;5.75;;;6.10;99.90;;;;;;5020633;28;20245;-72
2023/02/06 11:52:29;;;;;;;11.68;8.35;;;6.20;99.90;;;;;;5021857;28;20213;-72
2023/02/06 11:55:23;;;;;;;7.40;5.25;;;6.20;99.90;;;;;;5025877;28;20213;-73
2023/02/06 11:58:21;;;;;;;6.53;4.72;;;6.10;99.90;;;;;;5017475;28;20237;-72
2023/02/06 12:03:37;;;;;;;17.98;7.30;;;5.90;99.90;;;;;;5021011;28;20217;-74
2023/02/06 12:06:30;;;;;;;6.63;5.10;;;5.80;99.90;;;;;;5023383;28;20200;-74
2023/02/06 12:09:15;;;;;;;11.90;6.13;;;5.90;99.90;;;;;;5024051;28;20611;-73
2023/02/06 12:12:06;;;;;;;10.07;6.25;;;5.90;99.90;;;;;;5019916;28;20222;-73
2023/02/06 12:14:56;;;;;;;12.88;6.63;;;6.10;99.90;;;;;;5030382;28;20317;-74
2023/02/06 12:17:45;;;;;;;6.03;4.77;;;6.40;99.90;;;;;;5023541;28;20572;-75
2023/02/06 12:20:33;;;;;;;6.90;4.43;;;6.60;99.90;;;;;;5027737;28;20456;-75
2023/02/06 12:23:27;;;;;;;5.03;4.10;;;6.80;99.90;;;;;;5033327;28;20209;-74
2023/02/06 12:26:17;;;;;;;8.90;4.70;;;7.10;99.90;;;;;;5033625;28;20237;-74
2023/02/06 12:29:08;;;;;;;8.18;5.00;;;7.20;99.90;;;;;;5022602;28;20276;-74
2023/02/06 12:32:03;;;;;;;5.80;4.22;;;7.10;99.90;;;;;;5031933;28;20225;-74
2023/02/06 12:34:53;;;;;;;8.60;5.37;;;7.00;99.90;;;;;;5019634;28;20222;-74
2023/02/06 12:37:44;;;;;;;7.77;5.10;;;7.00;99.90;;;;;;5018161;28;20453;-75
2023/02/06 12:40:42;;;;;;;8.10;4.50;;;7.10;99.90;;;;;;5028051;28;20846;-74
2023/02/06 12:43:29;;;;;;;7.17;4.97;;;7.40;99.90;;;;;;5027339;28;20560;-74
2023/02/06 12:46:20;;;;;;;7.25;5.45;;;7.60;99.90;;;;;;5027295;28;20632;-74
2023/02/06 12:49:14;;;;;;;6.80;5.13;;;7.80;99.90;;;;;;5029586;28;20683;-74
2023/02/06 12:52:05;;;;;;;8.03;5.60;;;7.90;99.90;;;;;;5025776;28;20472;-75
2023/02/06 12:54:55;;;;;;;9.63;5.63;;;8.10;97.20;;;;;;5026964;28;20464;-74
2023/02/06 12:57:42;;;;;;;6.10;4.33;;;8.10;95.50;;;;;;5019821;28;20915;-75
2023/02/06 13:00:51;;;;;;;7.87;4.27;;;8.00;95.40;;;;;;5020948;28;20472;-75
2023/02/06 13:03:43;;;;;;;7.20;4.50;;;8.10;96.60;;;;;;5023219;28;20790;-75
2023/02/06 13:06:34;;;;;;;5.10;4.00;;;8.40;90.40;;;;;;5018681;28;20875;-75
2023/02/06 13:09:25;;;;;;;9.13;4.80;;;8.40;85.10;;;;;;5020619;28;20607;-74
2023/02/06 13:12:14;;;;;;;6.40;4.30;;;8.70;80.20;;;;;;5020223;28;20429;-74
2023/02/06 13:15:05;;;;;;;8.10;5.10;;;8.40;78.20;;;;;;5027989;28;20496;-74
2023/02/06 13:17:50;;;;;;;5.43;3.83;;;8.20;80.20;;;;;;5020253;28;20544;-74
2023/02/06 13:21:17;;;;;;;5.97;3.40;;;8.00;81.60;;;;;;5022063;28;20460;-75
2023/02/06 13:24:18;;;;;;;9.93;3.95;;;7.70;82.60;;;;;;5029678;28;20431;-75
2023/02/06 13:27:14;;;;;;;10.40;4.63;;;7.50;85.90;;;;;;5018586;28;20690;-74
2023/02/06 13:30:37;;;;;;;6.93;4.03;;;7.20;86.60;;;;;;5019892;28;20444;-74
2023/02/06 13:33:23;;;;;;;7.87;4.00;;;7.20;86.10;;;;;;5021174;28;20452;-74
2023/02/06 13:36:17;;;;;;;7.03;4.05;;;7.10;88.10;;;;;;5024926;28;20886;-74
2023/02/06 13:39:21;;;;;;;5.40;3.43;;;7.20;91.20;;;;;;5028916;28;20686;-74
2023/02/06 13:42:32;;;;;;;5.83;3.70;;;7.30;90.00;;;;;;5019307;28;20484;-74
2023/02/06 13:45:23;;;;;;;9.10;3.40;;;7.40;88.00;;;;;;5020361;28;20452;-74
2023/02/06 13:48:45;;;;;;;7.10;3.80;;;8.00;87.20;;;;;;5031341;28;20567;-75
2023/02/06 13:51:44;;;;;;;4.97;3.40;;;8.50;79.70;;;;;;5019356;28;20833;-75
2023/02/06 13:54:52;;;;;;;5.67;2.87;;;9.00;73.70;;;;;;5027045;28;20985;-75
2023/02/06 13:57:57;;;;;;;7.43;3.03;;;9.80;70.70;;;;;;5029047;28;20463;-75
2023/02/06 14:00:47;;;;;;;5.37;3.20;;;10.40;59.80;;;;;;5034066;28;20987;-75
2023/02/06 14:03:37;;;;;;;4.33;2.60;;;10.50;55.10;;;;;;5032754;28;20448;-75
2023/02/06 14:06:40;;;;;;;8.33;3.90;;;10.60;54.00;;;;;;5027376;28;20428;-75
2023/02/06 14:13:00;;;;;;;3.27;2.60;;;10.40;56.30;;;;;;5031091;28;20507;-74
2023/02/06 14:15:58;;;;;;;7.33;3.10;;;10.00;55.40;;;;;;5023808;28;21144;-74
2023/02/06 14:18:49;;;;;;;3.90;2.83;;;9.50;55.80;;;;;;5026826;28;20791;-74
2023/02/06 14:21:44;;;;;;;5.37;2.87;;;8.90;57.70;;;;;;5030072;28;20552;-74
2023/02/06 14:24:53;;;;;;;4.87;2.23;;;8.50;59.00;;;;;;5027654;28;20448;-74
2023/02/06 14:27:53;;;;;;;8.53;3.20;;;8.30;60.60;;;;;;5019395;28;20878;-74
2023/02/06 14:30:46;;;;;;;6.27;2.83;;;8.10;63.00;;;;;;5019515;28;20537;-74
2023/02/06 14:34:06;;;;;;;4.65;2.50;;;7.90;65.70;;;;;;5022960;28;20885;-75
2023/02/06 14:37:10;;;;;;;5.83;2.57;;;7.70;69.80;;;;;;5013333;28;20225;-74
2023/02/06 14:39:57;;;;;;;4.30;2.73;;;7.60;69.50;;;;;;5018509;28;20441;-73
2023/02/06 14:42:45;;;;;;;4.50;2.97;;;7.50;71.60;;;;;;5029781;28;20937;-73
2023/02/06 14:45:34;;;;;;;5.43;2.93;;;7.40;69.30;;;;;;5024301;28;20469;-74
2023/02/06 14:48:24;;;;;;;4.03;2.67;;;7.30;67.20;;;;;;5028687;28;20898;-74
2023/02/06 14:51:21;;;;;;;13.20;2.90;;;7.10;69.00;;;;;;5017503;28;20451;-74